createdAt,value
2019-05-07T00:01:34.244Z,90.91
2019-05-07T00:04:01.988Z,91.50
2019-05-07T00:06:29.497Z,91.25
2019-05-07T00:08:57.108Z,91.67
2019-05-07T00:11:24.834Z,91.47
2019-05-07T00:13:52.403Z,91.54
2019-05-07T00:16:19.750Z,91.40
2019-05-07T00:18:47.026Z,91.05
2019-05-07T00:21:14.417Z,90.47
2019-05-07T00:23:43.191Z,89.94
2019-05-07T00:26:13.083Z,88.99
2019-05-07T00:28:40.125Z,88.20
2019-05-07T00:31:07.617Z,88.68
2019-05-07T00:33:35.881Z,88.83
2019-05-07T00:36:08.996Z,89.19
2019-05-07T00:38:38.693Z,89.19
2019-05-07T00:41:22.928Z,89.08
2019-05-07T00:43:52.790Z,89.05
2019-05-07T00:46:22.852Z,89.27
2019-05-07T00:48:50.210Z,89.07
2019-05-07T00:51:33.361Z,89.14
2019-05-07T00:54:02.812Z,89.34
2019-05-07T00:56:30.210Z,89.32
2019-05-07T00:58:57.678Z,89.31
2019-05-07T01:01:24.951Z,89.51
2019-05-07T01:03:53.355Z,89.23
2019-05-07T01:06:22.756Z,88.85
2019-05-07T01:08:51.954Z,88.82
2019-05-07T01:11:19.256Z,88.54
2019-05-07T01:13:46.514Z,88.43
2019-05-07T01:16:13.907Z,88.42
2019-05-07T01:18:42.036Z,88.37
2019-05-07T01:21:09.615Z,87.72
2019-05-07T01:23:36.873Z,87.22
2019-05-07T01:26:04.140Z,87.38
2019-05-07T01:28:34.462Z,87.57
2019-05-07T01:31:02.215Z,87.78
2019-05-07T01:33:38.745Z,88.12
2019-05-07T01:36:24.362Z,88.58
2019-05-07T01:38:52.283Z,88.69
2019-05-07T01:41:19.742Z,88.38
2019-05-07T01:43:47.060Z,88.08
2019-05-07T01:46:14.440Z,88.29
2019-05-07T01:48:42.994Z,88.93
2019-05-07T01:51:12.843Z,88.67
2019-05-07T01:53:42.851Z,88.58
2019-05-07T01:56:12.412Z,88.22
2019-05-07T01:58:42.478Z,88.60
2019-05-07T02:01:10.236Z,88.39
2019-05-07T02:03:57.269Z,88.22
2019-05-07T02:06:48.156Z,88.15
2019-05-07T02:09:38.268Z,88.02
2019-05-07T02:12:24.043Z,88.05
2019-05-07T02:14:53.306Z,87.80
2019-05-07T02:17:22.799Z,87.55
2019-05-07T02:19:52.630Z,87.55
2019-05-07T02:22:23.552Z,87.89
2019-05-07T02:24:52.386Z,87.54
2019-05-07T04:45:04.923Z,90.98
2019-05-07T04:47:42.075Z,91.16
2019-05-07T04:50:03.760Z,91.42
2019-05-07T04:52:35.160Z,91.43
2019-05-07T04:55:04.070Z,91.40
2019-05-07T04:57:33.129Z,91.40
2019-05-07T05:00:03.471Z,91.57
2019-05-07T05:02:43.592Z,91.98
2019-05-07T05:05:13.181Z,92.36
2019-05-07T05:07:42.875Z,92.73
2019-05-07T05:10:10.100Z,92.96
2019-05-07T05:12:37.412Z,93.15
2019-05-07T05:15:04.917Z,93.24
2019-05-07T05:17:46.786Z,93.46
2019-05-07T05:20:03.632Z,93.60
2019-05-07T05:22:53.090Z,93.55
2019-05-07T05:25:27.755Z,93.10
2019-05-07T05:27:55.124Z,92.93
2019-05-07T05:30:38.101Z,92.01
2019-05-07T05:33:05.613Z,91.62
2019-05-07T05:35:32.885Z,89.00
2019-05-07T05:38:00.170Z,87.89
2019-05-07T05:40:29.208Z,86.49
2019-05-07T05:43:06.262Z,82.31
2019-05-07T05:45:34.505Z,81.85
2019-05-07T05:48:07.455Z,76.42
2019-05-07T05:50:38.030Z,78.95
2019-05-07T05:53:15.012Z,78.29
2019-05-07T05:55:42.867Z,77.26
2019-05-07T05:58:24.270Z,76.27
2019-05-07T06:01:17.432Z,74.52
2019-05-07T06:04:13.112Z,70.00
2019-05-07T06:07:01.132Z,71.66
2019-05-07T06:09:29.224Z,66.74
2019-05-07T06:12:07.571Z,67.83
2019-05-07T06:14:39.105Z,70.42
2019-05-07T06:17:37.768Z,67.73
2019-05-07T06:20:34.151Z,65.68
2019-05-07T06:23:22.296Z,68.15
2019-05-07T06:25:49.030Z,64.06
2019-05-07T06:28:16.277Z,63.92
2019-05-07T06:30:43.543Z,63.71
2019-05-07T06:33:12.399Z,63.43
2019-05-07T06:35:39.890Z,61.03
2019-05-07T06:38:08.749Z,60.13
2019-05-07T06:40:45.641Z,61.92
2019-05-07T06:43:44.768Z,58.70
2019-05-07T06:46:12.622Z,56.93
2019-05-07T06:48:43.672Z,54.16
2019-05-07T06:51:09.570Z,54.54
2019-05-07T06:53:36.823Z,53.88
2019-05-07T06:56:04.235Z,54.37
2019-05-07T06:58:41.874Z,55.67
2019-05-07T07:01:17.415Z,54.80
2019-05-07T07:04:19.377Z,56.24
2019-05-07T07:07:22.474Z,59.54
2019-05-07T07:09:51.930Z,60.14
2019-05-07T07:12:25.545Z,60.68
2019-05-07T07:14:51.817Z,62.00
2019-05-07T07:17:22.163Z,62.69
2019-05-07T07:19:49.406Z,62.27
2019-05-07T07:22:16.815Z,61.35
2019-05-07T07:24:44.146Z,58.35
2019-05-07T07:27:13.214Z,56.67
2019-05-07T07:29:47.367Z,53.09
2019-05-07T07:32:16.579Z,51.54
2019-05-07T07:34:47.286Z,62.06
2019-05-07T07:37:26.775Z,60.80
2019-05-07T07:40:12.853Z,57.21
2019-05-07T07:42:42.540Z,56.51
2019-05-07T07:45:16.765Z,60.06
2019-05-07T07:47:44.723Z,58.43
2019-05-07T07:50:12.965Z,57.49
2019-05-07T07:52:42.046Z,55.90
2019-05-07T07:55:12.636Z,57.28
2019-05-07T07:57:55.562Z,55.41
2019-05-07T08:00:32.873Z,55.61
2019-05-07T08:03:03.032Z,57.40
2019-05-07T08:05:32.534Z,54.53
2019-05-07T08:08:02.148Z,57.14
2019-05-07T08:10:29.131Z,51.08
2019-05-07T08:12:56.406Z,51.74
2019-05-07T08:15:24.747Z,56.85
2019-05-07T08:17:52.288Z,56.28
2019-05-07T08:20:22.052Z,54.59
2019-05-07T08:22:48.861Z,53.38
2019-05-07T08:25:16.179Z,52.64
2019-05-07T08:27:43.477Z,49.91
2019-05-07T08:30:14.011Z,53.31
2019-05-07T08:32:55.354Z,51.00
2019-05-07T08:35:42.189Z,55.61
2019-05-07T08:38:09.493Z,48.33
2019-05-07T08:40:38.201Z,46.63
2019-05-07T08:43:06.231Z,49.57
2019-05-07T08:45:53.106Z,48.06
2019-05-07T08:48:25.409Z,45.94
2019-05-07T08:50:52.849Z,51.02
2019-05-07T08:53:22.361Z,50.93
2019-05-07T08:55:49.566Z,52.85
2019-05-07T08:58:16.978Z,51.42
2019-05-07T09:00:45.265Z,52.13
2019-05-07T09:03:22.083Z,49.32
2019-05-07T09:05:45.509Z,47.41
2019-05-07T09:08:12.950Z,44.17
2019-05-07T09:10:42.205Z,40.12
2019-05-07T09:13:09.467Z,41.34
2019-05-07T09:15:37.308Z,47.47
2019-05-07T09:18:04.554Z,49.65
2019-05-07T09:20:32.257Z,44.60
2019-05-07T09:23:02.020Z,46.30
2019-05-07T09:25:29.062Z,44.26
2019-05-07T09:27:56.537Z,44.49
2019-05-07T09:30:46.408Z,42.02
2019-05-07T09:33:24.196Z,44.21
2019-05-07T09:35:53.159Z,47.76
2019-05-07T09:38:22.307Z,46.49
2019-05-07T09:40:49.858Z,46.70
2019-05-07T09:43:17.227Z,48.70
2019-05-07T09:45:44.654Z,41.15
2019-05-07T09:48:12.178Z,39.49
2019-05-07T09:50:40.198Z,37.56
2019-05-07T09:53:07.590Z,39.08
2019-05-07T09:55:34.834Z,39.94
2019-05-07T09:58:02.226Z,42.44
2019-05-07T10:00:31.815Z,46.10
2019-05-07T10:02:59.066Z,48.26
2019-05-07T10:05:26.349Z,47.82
2019-05-07T10:07:53.568Z,47.55
2019-05-07T10:10:22.281Z,51.09
2019-05-07T10:13:01.712Z,47.46
2019-05-07T10:15:28.912Z,46.58
2019-05-07T10:18:08.100Z,46.62
2019-05-07T10:20:35.374Z,46.06
2019-05-07T10:23:02.780Z,45.79
2019-05-07T10:25:37.457Z,43.66
2019-05-07T10:28:04.883Z,45.90
2019-05-07T10:30:32.266Z,49.02
2019-05-07T10:33:01.652Z,46.11
2019-05-07T10:35:31.090Z,47.94
2019-05-07T10:37:57.906Z,46.70
2019-05-07T10:40:25.606Z,50.88
2019-05-07T10:42:52.923Z,47.43
2019-05-07T10:45:37.094Z,49.15
2019-05-07T10:48:12.304Z,46.83
2019-05-07T10:50:42.533Z,49.78
2019-05-07T10:53:09.918Z,50.35
2019-05-07T10:55:37.424Z,50.81
2019-05-07T10:58:04.910Z,49.92
2019-05-07T11:00:39.095Z,48.42
2019-05-07T11:03:08.703Z,49.07
2019-05-07T11:05:37.063Z,47.95
2019-05-07T11:08:05.441Z,44.87
2019-05-07T11:10:34.675Z,44.62
2019-05-07T11:13:02.544Z,41.89
2019-05-07T11:15:32.763Z,42.20
2019-05-07T11:18:13.940Z,43.28
2019-05-07T11:20:49.324Z,43.12
2019-05-07T11:23:11.308Z,40.03
2019-05-07T11:25:38.583Z,37.80
2019-05-07T11:28:05.932Z,42.99
2019-05-07T11:30:33.234Z,44.98
2019-05-07T11:33:02.488Z,42.78
2019-05-07T11:35:31.714Z,39.36
2019-05-07T11:37:59.068Z,39.21
2019-05-07T11:40:26.436Z,39.93
2019-05-07T11:43:16.249Z,39.19
2019-05-07T11:46:06.233Z,40.23
2019-05-07T11:48:36.527Z,40.70
2019-05-07T11:51:26.408Z,39.86
2019-05-07T11:54:13.446Z,37.24
2019-05-07T11:56:42.254Z,38.66
2019-05-07T11:59:09.947Z,36.27
2019-05-07T12:01:46.680Z,35.50
2019-05-07T12:04:08.879Z,36.34
2019-05-07T12:06:36.361Z,37.09
2019-05-07T12:09:06.339Z,35.23
2019-05-07T12:11:34.010Z,32.26
2019-05-07T12:14:01.998Z,31.89
2019-05-07T12:16:31.874Z,34.85
2019-05-07T12:18:59.055Z,33.66
2019-05-07T12:21:26.378Z,34.90
2019-05-07T12:23:53.631Z,31.92
2019-05-07T12:26:22.246Z,31.62
2019-05-07T12:28:49.705Z,28.83
2019-05-07T12:31:39.285Z,30.40
2019-05-07T12:34:19.401Z,25.22
2019-05-07T12:36:47.108Z,25.76
2019-05-07T12:39:14.462Z,28.19
2019-05-07T12:41:43.043Z,32.86
2019-05-07T12:44:12.771Z,34.92
2019-05-07T12:46:42.094Z,36.44
2019-05-07T12:49:09.175Z,37.14
2019-05-07T12:52:02.376Z,37.88
2019-05-07T12:54:37.551Z,39.53
2019-05-07T12:57:04.920Z,41.27
2019-05-07T12:59:32.358Z,41.52
2019-05-07T13:02:37.292Z,41.68
2019-05-07T13:04:54.739Z,43.44
2019-05-07T13:07:41.793Z,43.31
2019-05-07T13:10:09.477Z,38.47
2019-05-07T13:12:36.816Z,38.74
2019-05-07T13:15:05.382Z,36.97
2019-05-07T13:17:33.874Z,40.87
2019-05-07T13:20:03.777Z,41.77
2019-05-07T13:22:32.587Z,38.78
2019-05-07T13:25:02.154Z,34.08
2019-05-07T13:27:31.869Z,31.61
2019-05-07T13:29:59.141Z,31.67
2019-05-07T13:32:26.755Z,35.54
2019-05-07T13:34:55.265Z,32.12
2019-05-07T13:37:26.218Z,32.93
2019-05-07T13:39:58.365Z,34.49
2019-05-07T13:42:34.299Z,37.51
2019-05-07T13:45:31.797Z,38.47
2019-05-07T13:48:11.988Z,39.15
2019-05-07T13:50:39.219Z,38.34
2019-05-07T13:53:06.747Z,39.88
2019-05-07T13:55:34.140Z,38.25
2019-05-07T13:58:01.610Z,38.42
2019-05-07T14:00:34.448Z,39.31
2019-05-07T14:03:03.261Z,37.82
2019-05-07T14:05:32.360Z,34.97
2019-05-07T14:07:59.845Z,38.32
2019-05-07T14:10:27.507Z,39.39
2019-05-07T14:13:07.618Z,40.00
2019-05-07T14:15:24.241Z,38.22
2019-05-07T14:17:52.646Z,35.41
2019-05-07T14:20:22.199Z,34.79
2019-05-07T14:22:51.708Z,32.25
2019-05-07T14:25:21.850Z,33.24
2019-05-07T14:27:49.662Z,31.56
2019-05-07T14:30:18.219Z,31.22
2019-05-07T14:32:58.922Z,28.34
2019-05-07T14:35:53.835Z,26.68
2019-05-07T14:38:25.401Z,29.03
2019-05-07T14:40:52.857Z,28.36
2019-05-07T14:43:42.620Z,32.35
2019-05-07T14:46:11.955Z,31.27
2019-05-07T14:48:41.923Z,35.81
2019-05-07T14:51:08.662Z,37.37
2019-05-07T14:53:35.942Z,37.27
2019-05-07T14:56:04.663Z,36.60
2019-05-07T14:58:32.104Z,37.19
2019-05-07T15:00:59.477Z,40.61
2019-05-07T15:03:26.937Z,40.81
2019-05-07T15:05:54.578Z,42.68
2019-05-07T15:08:22.123Z,42.64
2019-05-07T15:10:49.420Z,43.22
2019-05-07T15:13:18.511Z,43.64
2019-05-07T15:15:46.506Z,48.37
2019-05-07T15:18:22.981Z,44.65
2019-05-07T15:20:52.396Z,45.91
2019-05-07T15:23:27.078Z,47.40
2019-05-07T15:25:54.402Z,48.82
2019-05-07T15:28:22.800Z,48.67
2019-05-07T15:30:59.251Z,51.00
2019-05-07T15:33:26.634Z,51.42
2019-05-07T15:35:54.142Z,50.82
2019-05-07T15:38:22.352Z,50.43
2019-05-07T15:40:51.868Z,50.75
2019-05-07T15:43:19.782Z,51.54
2019-05-07T15:45:47.078Z,51.62
2019-05-07T15:48:14.442Z,51.50
2019-05-07T15:50:42.871Z,50.34
2019-05-07T15:53:48.511Z,50.04
2019-05-07T15:56:15.949Z,46.86
2019-05-07T15:58:44.252Z,46.62
2019-05-07T16:01:12.865Z,43.89
2019-05-07T16:03:42.952Z,44.48
2019-05-07T16:06:12.639Z,42.89
2019-05-07T16:08:51.462Z,43.95
2019-05-07T16:11:18.757Z,42.17
2019-05-07T16:13:55.209Z,41.20
2019-05-07T16:16:23.582Z,40.70
2019-05-07T16:19:07.339Z,42.09
2019-05-07T16:21:34.685Z,43.22
2019-05-07T16:24:04.138Z,42.77
2019-05-07T16:26:32.669Z,42.71
2019-05-07T16:29:04.382Z,42.70
2019-05-07T16:31:29.902Z,43.45
2019-05-07T16:33:57.282Z,44.01
2019-05-07T16:36:24.580Z,46.67
2019-05-07T16:38:52.695Z,44.98
2019-05-07T16:41:22.279Z,46.89
2019-05-07T16:43:49.682Z,47.71
2019-05-07T16:46:16.986Z,48.43
2019-05-07T16:48:44.711Z,50.14
2019-05-07T16:51:12.864Z,48.72
2019-05-07T16:53:42.139Z,48.46
2019-05-07T16:56:09.598Z,48.99
2019-05-07T16:58:53.706Z,48.14
2019-05-07T17:01:22.232Z,50.55
2019-05-07T17:03:54.468Z,49.64
2019-05-07T17:06:24.741Z,50.59
2019-05-07T17:09:00.088Z,48.51
2019-05-07T17:11:27.535Z,50.48
2019-05-07T17:13:54.845Z,50.40
2019-05-07T17:16:22.834Z,50.47
2019-05-07T17:18:51.838Z,47.58
2019-05-07T17:21:21.635Z,49.77
2019-05-07T17:23:48.669Z,49.18
2019-05-07T17:26:16.013Z,48.37
2019-05-07T17:28:43.335Z,51.78
2019-05-07T17:31:12.392Z,47.71
2019-05-07T17:33:39.897Z,48.98
2019-05-07T17:36:07.226Z,48.02
2019-05-07T17:38:34.611Z,49.14
2019-05-07T17:41:10.880Z,50.67
2019-05-07T17:43:32.519Z,51.70
2019-05-07T17:46:00.051Z,51.05
2019-05-07T17:48:27.322Z,50.71
2019-05-07T17:51:23.417Z,49.00
2019-05-07T17:53:59.699Z,51.32
2019-05-07T17:56:22.379Z,52.41
2019-05-07T17:58:52.049Z,53.03
2019-05-07T18:01:24.465Z,54.10
2019-05-07T18:03:52.136Z,53.65
2019-05-07T18:06:19.910Z,53.06
2019-05-07T18:08:47.339Z,52.71
2019-05-07T18:11:20.890Z,54.54
2019-05-07T18:13:45.136Z,55.25
2019-05-07T18:16:33.672Z,54.19
2019-05-07T18:19:02.086Z,54.84
2019-05-07T18:21:32.548Z,55.88
2019-05-07T18:24:12.728Z,57.02
2019-05-07T18:26:31.492Z,57.24
2019-05-07T18:28:59.252Z,57.31
2019-05-07T18:31:44.648Z,57.53
2019-05-07T18:34:12.869Z,57.83
2019-05-07T18:36:42.232Z,59.89
2019-05-07T18:39:10.269Z,60.77
2019-05-07T18:41:37.855Z,60.76
2019-05-07T18:44:12.415Z,60.64
2019-05-07T18:46:34.548Z,60.87
2019-05-07T18:49:03.410Z,61.07
2019-05-07T18:51:32.193Z,61.81
2019-05-07T18:53:59.848Z,62.72
2019-05-07T18:56:28.938Z,63.89
2019-05-07T18:58:56.356Z,64.69
2019-05-07T19:01:25.544Z,65.52
2019-05-07T19:03:53.672Z,66.03
2019-05-07T19:06:22.272Z,67.07
2019-05-07T19:08:49.806Z,67.75
2019-05-07T19:11:17.291Z,68.24
2019-05-07T19:13:44.800Z,68.78
2019-05-07T19:16:12.783Z,68.91
2019-05-07T19:18:42.852Z,69.36
2019-05-07T19:21:09.607Z,69.98
2019-05-07T19:23:37.046Z,70.71
2019-05-07T19:26:04.446Z,70.98
2019-05-07T19:28:32.938Z,71.23
2019-05-07T19:31:00.385Z,71.66
2019-05-07T19:33:27.804Z,71.53
2019-05-07T19:35:55.097Z,71.75
2019-05-07T19:38:22.524Z,72.30
2019-05-07T19:40:49.903Z,72.78
2019-05-07T19:43:17.179Z,72.85
2019-05-07T19:45:44.558Z,73.04
2019-05-07T19:48:13.007Z,73.26
2019-05-07T19:50:41.997Z,73.82
2019-05-07T19:53:09.609Z,74.15
2019-05-07T19:55:56.466Z,74.51
2019-05-07T19:58:23.822Z,74.94
2019-05-07T20:00:56.884Z,75.72
2019-05-07T20:03:22.317Z,76.23
2019-05-07T20:05:49.657Z,75.99
2019-05-07T20:08:17.056Z,76.74
2019-05-07T20:10:51.954Z,76.67
2019-05-07T20:13:19.351Z,76.89
2019-05-07T20:15:52.110Z,76.81
2019-05-07T20:18:21.924Z,77.12
2019-05-07T20:20:49.162Z,77.37
2019-05-07T20:23:16.445Z,78.05
2019-05-07T20:25:43.754Z,78.56
2019-05-07T20:28:12.711Z,79.48
2019-05-07T20:30:41.799Z,79.47
2019-05-07T20:33:09.234Z,79.44
2019-05-07T20:35:39.362Z,79.87
2019-05-07T20:38:05.907Z,80.09
2019-05-07T20:40:33.200Z,80.14
2019-05-07T20:43:01.911Z,80.33
2019-05-07T20:45:31.816Z,80.37
2019-05-07T20:47:58.753Z,80.69
2019-05-07T20:50:26.051Z,80.62
2019-05-07T20:52:53.372Z,80.69
2019-05-07T20:55:35.792Z,80.67
2019-05-07T20:58:03.322Z,80.66
2019-05-07T21:00:32.573Z,80.75
2019-05-07T21:03:19.029Z,80.74
2019-05-07T21:05:46.922Z,80.79
2019-05-07T21:08:14.223Z,81.08
2019-05-07T21:10:42.812Z,81.25
2019-05-07T21:13:26.192Z,81.08
2019-05-07T21:15:41.765Z,81.59
2019-05-07T21:18:08.960Z,81.96
2019-05-07T21:20:36.379Z,82.15
2019-05-07T21:23:04.022Z,81.88
2019-05-07T21:25:42.233Z,82.07
2019-05-07T21:28:02.087Z,82.16
2019-05-07T21:30:29.494Z,82.23
2019-05-07T21:32:56.795Z,82.35
2019-05-07T21:35:24.167Z,82.67
2019-05-07T21:37:52.394Z,82.68
2019-05-07T21:40:19.783Z,82.64
2019-05-07T21:42:47.102Z,82.54
2019-05-07T21:45:14.474Z,82.30
2019-05-07T21:47:41.739Z,82.00
2019-05-07T21:50:09.184Z,82.29
2019-05-07T21:52:39.509Z,82.39
2019-05-07T21:55:14.642Z,82.67
2019-05-07T21:57:54.604Z,82.61
2019-05-07T22:00:38.246Z,82.92
2019-05-07T22:03:12.508Z,83.20
2019-05-07T22:05:44.103Z,83.72
2019-05-07T22:08:12.378Z,83.62
2019-05-07T22:10:39.805Z,83.54
2019-05-07T22:13:07.120Z,83.87
2019-05-07T22:15:34.464Z,83.93
2019-05-07T22:18:02.690Z,83.90
2019-05-07T22:20:31.970Z,83.62
2019-05-07T22:22:59.527Z,83.50
2019-05-07T22:25:26.905Z,83.37
2019-05-07T22:27:57.603Z,83.51
2019-05-07T22:30:34.238Z,83.67
2019-05-07T22:33:09.348Z,84.14
2019-05-07T22:35:39.928Z,84.30
2019-05-07T22:38:32.387Z,84.45
2019-05-07T22:41:02.953Z,84.25
2019-05-07T22:43:34.339Z,84.45
2019-05-07T22:46:12.466Z,84.69
2019-05-07T22:48:41.858Z,84.71
2019-05-07T22:51:13.833Z,84.53
2019-05-07T22:53:41.425Z,84.54
2019-05-07T22:56:14.104Z,84.75
2019-05-07T22:58:47.233Z,85.06
2019-05-07T23:01:17.968Z,85.03
2019-05-07T23:03:53.965Z,84.95
2019-05-07T23:06:24.425Z,84.96
2019-05-07T23:08:53.596Z,85.08
2019-05-07T23:11:22.909Z,84.86
2019-05-07T23:13:54.761Z,84.59
2019-05-07T23:16:27.387Z,84.73
2019-05-07T23:18:55.235Z,85.12
2019-05-07T23:21:33.119Z,84.90
2019-05-07T23:24:17.734Z,84.49
2019-05-07T23:26:50.286Z,84.86
2019-05-07T23:29:28.034Z,84.64
2019-05-07T23:32:01.929Z,84.90
2019-05-07T23:34:54.597Z,84.72
2019-05-07T23:41:26.573Z,84.80
